Overview Statistics Trail Chart Weather Telemetry Raw packets
 

This is the latest recevied weather packets stored in our database for station/object EA3CH. If no packets are shown the sender has not sent any weather packets the latest 10 day(s).

<< 16 17 18 19 20 21 22 >>
Time Temp. Humidity Pressure Rain* Wind** Luminosity Snow
1788221704 20° C 98% 1022.6 hPa 0 mm - 0 W/m² -
1788220805 20° C 88% 1022.4 hPa 0 mm - 0 W/m² -
1788220804 20° C 98% 1022.6 hPa 0 mm - 0 W/m² -
1788219904 20° C 97% 1022.6 hPa 0 mm - 0 W/m² -
1788219004 19.44° C 98% 1022.6 hPa 0 mm - 0 W/m² -
1788218105 20° C 86% 1022.3 hPa 0 mm - 0 W/m² -
1788218104 19.44° C 97% 1022.5 hPa 0 mm - 0 W/m² -
1788217205 20° C 86% 1022.3 hPa 0 mm - 0 W/m² -
1788217204 19.44° C 97% 1022.5 hPa 0 mm - 0 W/m² -
1788216304 20° C 86% 1022.3 hPa 0 mm - 0 W/m² -
1788216303 19.44° C 97% 1022.5 hPa 0 mm - 0 W/m² -
1788215405 20° C 87% 1022.3 hPa 0 mm - 0 W/m² -
1788215404 20° C 96% 1022.5 hPa 0 mm - 0 W/m² -
1788214504 20° C 96% 1022.5 hPa 0 mm - 0 W/m² -
1788213605 20° C 95% 1022.5 hPa 0 mm - 0 W/m² -
1788213605 20° C 87% 1022.3 hPa 0 mm - 0 W/m² -
1788212704 20° C 95% 1022.4 hPa 0 mm - 0 W/m² -
1788211805 20° C 86% 1022.2 hPa 0 mm - 0 W/m² -
1788211803 20° C 94% 1022.4 hPa 0 mm - 0 W/m² -
1788210906 20.56° C 85% 1022.1 hPa 0 mm - 0 W/m² -
1788210903 20° C 93% 1022.3 hPa 0 mm - 0 W/m² -
1788210005 20.56° C 82% 1022.1 hPa 0 mm - 0 W/m² -
1788210004 20° C 91% 1022.3 hPa 0 mm - 0 W/m² -
1788209105 20.56° C 81% 1021.9 hPa 0 mm - 0 W/m² -
1788208203 20.56° C 89% 1022.1 hPa 0 mm - 0 W/m² -

* Rain latest hour (hover to see other rain measurements)
** Current wind speed in m/s (hover to see current wind gust speed)